sensor_id;sensor_type;location;lat;lon;timestamp;temperature;humidity
26336;DHT22;14047;50.936;4.654;2022-11-04T00:01:16;9.70;99.90
26336;DHT22;14047;50.936;4.654;2022-11-04T00:03:42;9.60;99.90
26336;DHT22;14047;50.936;4.654;2022-11-04T00:06:08;9.60;99.90
26336;DHT22;14047;50.936;4.654;2022-11-04T00:08:34;9.50;99.90
26336;DHT22;14047;50.936;4.654;2022-11-04T00:11:00;9.50;99.90
26336;DHT22;14047;50.936;4.654;2022-11-04T00:13:45;9.60;99.90
26336;DHT22;14047;50.936;4.654;2022-11-04T00:16:11;9.60;99.90
26336;DHT22;14047;50.936;4.654;2022-11-04T00:18:56;9.70;99.90
26336;DHT22;14047;50.936;4.654;2022-11-04T00:21:22;9.80;99.90
26336;DHT22;14047;50.936;4.654;2022-11-04T00:24:09;9.90;99.90
26336;DHT22;14047;50.936;4.654;2022-11-04T00:26:54;10.10;99.90
26336;DHT22;14047;50.936;4.654;2022-11-04T00:29:38;10.10;99.90
26336;DHT22;14047;50.936;4.654;2022-11-04T00:32:04;10.20;99.90
26336;DHT22;14047;50.936;4.654;2022-11-04T00:34:48;10.10;99.90
26336;DHT22;14047;50.936;4.654;2022-11-04T00:37:13;10.00;99.90
26336;DHT22;14047;50.936;4.654;2022-11-04T00:39:39;10.00;99.90
26336;DHT22;14047;50.936;4.654;2022-11-04T00:42:04;10.00;99.90
26336;DHT22;14047;50.936;4.654;2022-11-04T00:44:30;10.10;99.90
26336;DHT22;14047;50.936;4.654;2022-11-04T00:46:56;10.20;99.90
26336;DHT22;14047;50.936;4.654;2022-11-04T00:49:21;10.30;99.90
26336;DHT22;14047;50.936;4.654;2022-11-04T00:51:47;10.40;99.90
26336;DHT22;14047;50.936;4.654;2022-11-04T00:54:13;10.40;99.90
26336;DHT22;14047;50.936;4.654;2022-11-04T00:56:39;10.50;99.90
26336;DHT22;14047;50.936;4.654;2022-11-04T00:59:05;10.50;99.90
26336;DHT22;14047;50.936;4.654;2022-11-04T01:01:31;10.60;99.90
26336;DHT22;14047;50.936;4.654;2022-11-04T01:03:57;10.50;99.90
26336;DHT22;14047;50.936;4.654;2022-11-04T01:06:25;10.50;99.90
26336;DHT22;14047;50.936;4.654;2022-11-04T01:08:58;10.50;99.90
26336;DHT22;14047;50.936;4.654;2022-11-04T01:11:25;10.60;99.90
26336;DHT22;14047;50.936;4.654;2022-11-04T01:13:52;10.70;99.90
26336;DHT22;14047;50.936;4.654;2022-11-04T01:16:18;10.80;99.90
26336;DHT22;14047;50.936;4.654;2022-11-04T01:18:45;10.80;99.90
26336;DHT22;14047;50.936;4.654;2022-11-04T01:21:12;10.90;99.90
26336;DHT22;14047;50.936;4.654;2022-11-04T01:23:38;10.90;99.90
26336;DHT22;14047;50.936;4.654;2022-11-04T01:26:18;11.00;99.90
26336;DHT22;14047;50.936;4.654;2022-11-04T01:28:45;11.10;99.90
26336;DHT22;14047;50.936;4.654;2022-11-04T01:31:16;11.20;99.90
26336;DHT22;14047;50.936;4.654;2022-11-04T01:33:42;11.20;99.90
26336;DHT22;14047;50.936;4.654;2022-11-04T01:36:09;11.30;99.90
26336;DHT22;14047;50.936;4.654;2022-11-04T01:38:35;11.40;99.90
26336;DHT22;14047;50.936;4.654;2022-11-04T01:41:01;11.40;99.90
26336;DHT22;14047;50.936;4.654;2022-11-04T01:46:08;11.40;99.90
26336;DHT22;14047;50.936;4.654;2022-11-04T01:48:36;11.40;99.90
26336;DHT22;14047;50.936;4.654;2022-11-04T01:51:02;11.40;99.90
26336;DHT22;14047;50.936;4.654;2022-11-04T01:53:32;11.30;99.90
26336;DHT22;14047;50.936;4.654;2022-11-04T01:56:03;11.30;99.90
26336;DHT22;14047;50.936;4.654;2022-11-04T01:58:31;11.30;99.90
26336;DHT22;14047;50.936;4.654;2022-11-04T02:00:59;11.20;99.90
26336;DHT22;14047;50.936;4.654;2022-11-04T02:03:39;11.10;99.90
26336;DHT22;14047;50.936;4.654;2022-11-04T02:06:08;11.00;99.90
26336;DHT22;14047;50.936;4.654;2022-11-04T02:08:36;10.90;99.90
26336;DHT22;14047;50.936;4.654;2022-11-04T02:11:03;10.90;99.90
26336;DHT22;14047;50.936;4.654;2022-11-04T02:13:30;10.80;99.90
26336;DHT22;14047;50.936;4.654;2022-11-04T02:16:27;10.90;99.90
26336;DHT22;14047;50.936;4.654;2022-11-04T02:22:20;10.70;99.90
26336;DHT22;14047;50.936;4.654;2022-11-04T02:35:27;10.20;99.90
26336;DHT22;14047;50.936;4.654;2022-11-04T02:38:09;10.30;99.90
26336;DHT22;14047;50.936;4.654;2022-11-04T02:41:02;10.20;99.90
26336;DHT22;14047;50.936;4.654;2022-11-04T02:46:20;10.30;99.90
26336;DHT22;14047;50.936;4.654;2022-11-04T02:51:34;10.20;99.90
26336;DHT22;14047;50.936;4.654;2022-11-04T02:54:05;10.30;99.90
26336;DHT22;14047;50.936;4.654;2022-11-04T02:56:37;10.30;99.90
26336;DHT22;14047;50.936;4.654;2022-11-04T02:59:19;10.30;99.90
26336;DHT22;14047;50.936;4.654;2022-11-04T03:01:46;10.30;99.90
26336;DHT22;14047;50.936;4.654;2022-11-04T03:04:15;10.40;99.90
26336;DHT22;14047;50.936;4.654;2022-11-04T03:06:43;10.50;99.90
26336;DHT22;14047;50.936;4.654;2022-11-04T03:09:14;10.50;99.90
26336;DHT22;14047;50.936;4.654;2022-11-04T03:11:43;10.50;99.90
26336;DHT22;14047;50.936;4.654;2022-11-04T03:14:13;10.60;99.90
26336;DHT22;14047;50.936;4.654;2022-11-04T03:16:45;10.70;99.90
26336;DHT22;14047;50.936;4.654;2022-11-04T03:22:05;10.90;99.90
26336;DHT22;14047;50.936;4.654;2022-11-04T03:24:32;10.90;99.90
26336;DHT22;14047;50.936;4.654;2022-11-04T03:35:01;11.10;99.90
26336;DHT22;14047;50.936;4.654;2022-11-04T03:37:27;11.10;99.90
26336;DHT22;14047;50.936;4.654;2022-11-04T03:39:53;11.10;99.90
26336;DHT22;14047;50.936;4.654;2022-11-04T03:42:19;11.10;99.90
26336;DHT22;14047;50.936;4.654;2022-11-04T03:44:51;11.20;99.90
26336;DHT22;14047;50.936;4.654;2022-11-04T03:47:19;11.30;99.90
26336;DHT22;14047;50.936;4.654;2022-11-04T03:49:47;11.40;99.90
26336;DHT22;14047;50.936;4.654;2022-11-04T03:52:13;11.50;99.90
26336;DHT22;14047;50.936;4.654;2022-11-04T03:54:39;11.50;99.90
26336;DHT22;14047;50.936;4.654;2022-11-04T03:59:44;11.50;99.90
26336;DHT22;14047;50.936;4.654;2022-11-04T04:05:38;11.50;99.90
26336;DHT22;14047;50.936;4.654;2022-11-04T04:11:06;11.50;99.90
26336;DHT22;14047;50.936;4.654;2022-11-04T04:13:34;11.50;99.90
26336;DHT22;14047;50.936;4.654;2022-11-04T04:16:19;11.50;99.90
26336;DHT22;14047;50.936;4.654;2022-11-04T04:19:07;11.50;99.90
26336;DHT22;14047;50.936;4.654;2022-11-04T04:21:48;11.60;99.90
26336;DHT22;14047;50.936;4.654;2022-11-04T04:24:19;11.60;99.90
26336;DHT22;14047;50.936;4.654;2022-11-04T04:27:05;11.70;99.90
26336;DHT22;14047;50.936;4.654;2022-11-04T04:29:50;11.70;99.90
26336;DHT22;14047;50.936;4.654;2022-11-04T04:32:17;11.70;99.90
26336;DHT22;14047;50.936;4.654;2022-11-04T04:34:44;11.70;99.90
26336;DHT22;14047;50.936;4.654;2022-11-04T04:37:22;11.70;99.90
26336;DHT22;14047;50.936;4.654;2022-11-04T04:39:54;11.60;99.90
26336;DHT22;14047;50.936;4.654;2022-11-04T04:42:40;11.60;99.90
26336;DHT22;14047;50.936;4.654;2022-11-04T04:47:52;11.60;99.90
26336;DHT22;14047;50.936;4.654;2022-11-04T04:50:19;11.60;99.90
26336;DHT22;14047;50.936;4.654;2022-11-04T04:52:48;11.60;99.90
26336;DHT22;14047;50.936;4.654;2022-11-04T04:55:14;11.60;99.90
26336;DHT22;14047;50.936;4.654;2022-11-04T04:57:40;11.60;99.90
26336;DHT22;14047;50.936;4.654;2022-11-04T05:00:07;11.50;99.90
26336;DHT22;14047;50.936;4.654;2022-11-04T05:02:33;11.50;99.90
26336;DHT22;14047;50.936;4.654;2022-11-04T05:04:59;11.50;99.90
26336;DHT22;14047;50.936;4.654;2022-11-04T05:07:26;11.60;99.90
26336;DHT22;14047;50.936;4.654;2022-11-04T05:09:51;11.60;99.90
26336;DHT22;14047;50.936;4.654;2022-11-04T05:12:17;11.60;99.90
26336;DHT22;14047;50.936;4.654;2022-11-04T05:14:43;11.70;99.90
26336;DHT22;14047;50.936;4.654;2022-11-04T05:17:09;11.80;99.90
26336;DHT22;14047;50.936;4.654;2022-11-04T05:19:34;11.70;99.90
26336;DHT22;14047;50.936;4.654;2022-11-04T05:22:00;11.70;99.90
26336;DHT22;14047;50.936;4.654;2022-11-04T05:24:26;11.80;99.90
26336;DHT22;14047;50.936;4.654;2022-11-04T05:26:51;11.80;99.90
26336;DHT22;14047;50.936;4.654;2022-11-04T05:29:17;11.90;99.90
26336;DHT22;14047;50.936;4.654;2022-11-04T05:31:43;11.90;99.90
26336;DHT22;14047;50.936;4.654;2022-11-04T05:34:12;11.90;99.90
26336;DHT22;14047;50.936;4.654;2022-11-04T05:36:38;12.00;99.90
26336;DHT22;14047;50.936;4.654;2022-11-04T05:39:04;12.10;99.90
26336;DHT22;14047;50.936;4.654;2022-11-04T05:41:31;12.10;99.90
26336;DHT22;14047;50.936;4.654;2022-11-04T05:43:58;12.20;99.90
26336;DHT22;14047;50.936;4.654;2022-11-04T05:46:25;12.20;99.90
26336;DHT22;14047;50.936;4.654;2022-11-04T05:48:51;12.30;99.90
26336;DHT22;14047;50.936;4.654;2022-11-04T05:51:19;12.30;99.90
26336;DHT22;14047;50.936;4.654;2022-11-04T05:53:45;12.30;99.90
26336;DHT22;14047;50.936;4.654;2022-11-04T05:56:11;12.40;99.90
26336;DHT22;14047;50.936;4.654;2022-11-04T05:58:37;12.40;99.90
26336;DHT22;14047;50.936;4.654;2022-11-04T06:03:38;12.50;99.90
26336;DHT22;14047;50.936;4.654;2022-11-04T06:06:03;12.40;99.90
26336;DHT22;14047;50.936;4.654;2022-11-04T06:08:29;12.40;99.90
26336;DHT22;14047;50.936;4.654;2022-11-04T06:10:56;12.40;99.90
26336;DHT22;14047;50.936;4.654;2022-11-04T06:13:22;12.40;99.90
26336;DHT22;14047;50.936;4.654;2022-11-04T06:15:47;12.50;99.90
26336;DHT22;14047;50.936;4.654;2022-11-04T06:18:13;12.50;99.90
26336;DHT22;14047;50.936;4.654;2022-11-04T06:20:38;12.50;99.90
26336;DHT22;14047;50.936;4.654;2022-11-04T06:23:04;12.60;99.90
26336;DHT22;14047;50.936;4.654;2022-11-04T06:25:29;12.60;99.90
26336;DHT22;14047;50.936;4.654;2022-11-04T06:27:55;12.60;99.90
26336;DHT22;14047;50.936;4.654;2022-11-04T06:30:21;12.60;99.90
26336;DHT22;14047;50.936;4.654;2022-11-04T06:32:48;12.50;99.90
26336;DHT22;14047;50.936;4.654;2022-11-04T06:35:13;12.50;99.90
26336;DHT22;14047;50.936;4.654;2022-11-04T06:37:39;12.50;99.90
26336;DHT22;14047;50.936;4.654;2022-11-04T06:40:05;12.50;99.90
26336;DHT22;14047;50.936;4.654;2022-11-04T06:42:31;12.50;99.90
26336;DHT22;14047;50.936;4.654;2022-11-04T06:44:56;12.60;99.90
26336;DHT22;14047;50.936;4.654;2022-11-04T06:47:25;12.60;99.90
26336;DHT22;14047;50.936;4.654;2022-11-04T06:49:50;12.60;99.90
26336;DHT22;14047;50.936;4.654;2022-11-04T06:52:16;12.60;99.90
26336;DHT22;14047;50.936;4.654;2022-11-04T06:54:42;12.60;99.90
26336;DHT22;14047;50.936;4.654;2022-11-04T06:57:09;12.60;99.90
26336;DHT22;14047;50.936;4.654;2022-11-04T06:59:36;12.60;99.90
26336;DHT22;14047;50.936;4.654;2022-11-04T07:02:01;12.60;99.90
26336;DHT22;14047;50.936;4.654;2022-11-04T07:04:27;12.60;99.90
26336;DHT22;14047;50.936;4.654;2022-11-04T07:06:53;12.60;99.90
26336;DHT22;14047;50.936;4.654;2022-11-04T07:09:18;12.60;99.90
26336;DHT22;14047;50.936;4.654;2022-11-04T07:11:44;12.70;99.90
26336;DHT22;14047;50.936;4.654;2022-11-04T07:14:11;12.70;99.90
26336;DHT22;14047;50.936;4.654;2022-11-04T07:16:37;12.80;99.90
26336;DHT22;14047;50.936;4.654;2022-11-04T07:19:03;12.80;99.90
26336;DHT22;14047;50.936;4.654;2022-11-04T07:21:29;12.80;99.90
26336;DHT22;14047;50.936;4.654;2022-11-04T07:23:55;12.80;99.90
26336;DHT22;14047;50.936;4.654;2022-11-04T07:26:20;12.80;99.90
26336;DHT22;14047;50.936;4.654;2022-11-04T07:28:46;12.80;99.90
26336;DHT22;14047;50.936;4.654;2022-11-04T07:31:12;12.60;99.90
26336;DHT22;14047;50.936;4.654;2022-11-04T07:33:38;12.60;99.90
26336;DHT22;14047;50.936;4.654;2022-11-04T07:36:09;12.70;99.90
26336;DHT22;14047;50.936;4.654;2022-11-04T07:38:35;12.60;99.90
26336;DHT22;14047;50.936;4.654;2022-11-04T07:41:01;12.40;99.90
26336;DHT22;14047;50.936;4.654;2022-11-04T07:43:28;12.10;99.90
26336;DHT22;14047;50.936;4.654;2022-11-04T07:46:08;12.20;99.90
26336;DHT22;14047;50.936;4.654;2022-11-04T07:48:35;12.20;99.90
26336;DHT22;14047;50.936;4.654;2022-11-04T07:51:02;12.20;99.90
26336;DHT22;14047;50.936;4.654;2022-11-04T07:53:29;12.20;99.90
26336;DHT22;14047;50.936;4.654;2022-11-04T07:55:55;12.30;99.90
26336;DHT22;14047;50.936;4.654;2022-11-04T07:58:22;12.50;99.90
26336;DHT22;14047;50.936;4.654;2022-11-04T08:00:48;12.70;99.90
26336;DHT22;14047;50.936;4.654;2022-11-04T08:03:14;12.80;99.90
26336;DHT22;14047;50.936;4.654;2022-11-04T08:05:40;12.80;99.90
26336;DHT22;14047;50.936;4.654;2022-11-04T08:08:05;12.90;99.90
26336;DHT22;14047;50.936;4.654;2022-11-04T08:10:32;13.00;99.90
26336;DHT22;14047;50.936;4.654;2022-11-04T08:12:57;13.10;99.90
26336;DHT22;14047;50.936;4.654;2022-11-04T08:15:23;13.20;99.90
26336;DHT22;14047;50.936;4.654;2022-11-04T08:17:49;13.30;99.90
26336;DHT22;14047;50.936;4.654;2022-11-04T08:20:14;13.40;99.90
26336;DHT22;14047;50.936;4.654;2022-11-04T08:22:40;13.50;99.90
26336;DHT22;14047;50.936;4.654;2022-11-04T08:25:06;13.60;99.90
26336;DHT22;14047;50.936;4.654;2022-11-04T08:27:33;13.80;99.90
26336;DHT22;14047;50.936;4.654;2022-11-04T08:29:58;13.80;99.90
26336;DHT22;14047;50.936;4.654;2022-11-04T08:32:24;13.90;99.90
26336;DHT22;14047;50.936;4.654;2022-11-04T08:34:49;14.00;99.90
26336;DHT22;14047;50.936;4.654;2022-11-04T08:37:16;14.10;99.90
26336;DHT22;14047;50.936;4.654;2022-11-04T08:39:42;14.10;99.90
26336;DHT22;14047;50.936;4.654;2022-11-04T08:42:08;13.70;99.90
26336;DHT22;14047;50.936;4.654;2022-11-04T08:44:34;13.50;99.90
26336;DHT22;14047;50.936;4.654;2022-11-04T08:46:59;13.70;99.90
26336;DHT22;14047;50.936;4.654;2022-11-04T08:49:25;13.70;99.90
26336;DHT22;14047;50.936;4.654;2022-11-04T08:51:51;13.70;99.90
26336;DHT22;14047;50.936;4.654;2022-11-04T08:54:25;14.00;99.90
26336;DHT22;14047;50.936;4.654;2022-11-04T08:56:51;14.10;99.90
26336;DHT22;14047;50.936;4.654;2022-11-04T08:59:17;14.10;99.90
26336;DHT22;14047;50.936;4.654;2022-11-04T09:01:43;14.20;99.90
26336;DHT22;14047;50.936;4.654;2022-11-04T09:04:10;14.20;99.90
26336;DHT22;14047;50.936;4.654;2022-11-04T09:06:39;14.30;99.90
26336;DHT22;14047;50.936;4.654;2022-11-04T09:09:07;14.30;99.90
26336;DHT22;14047;50.936;4.654;2022-11-04T09:11:37;14.40;99.90
26336;DHT22;14047;50.936;4.654;2022-11-04T09:14:03;14.40;99.90
26336;DHT22;14047;50.936;4.654;2022-11-04T09:16:29;14.40;99.90
26336;DHT22;14047;50.936;4.654;2022-11-04T09:18:56;14.40;99.90
26336;DHT22;14047;50.936;4.654;2022-11-04T09:21:22;14.40;99.90
26336;DHT22;14047;50.936;4.654;2022-11-04T09:23:48;14.40;99.90
26336;DHT22;14047;50.936;4.654;2022-11-04T09:26:15;14.40;99.90
26336;DHT22;14047;50.936;4.654;2022-11-04T09:28:41;14.40;99.90
26336;DHT22;14047;50.936;4.654;2022-11-04T09:31:12;14.50;99.90
26336;DHT22;14047;50.936;4.654;2022-11-04T09:33:38;14.50;99.90
26336;DHT22;14047;50.936;4.654;2022-11-04T09:36:04;14.60;99.90
26336;DHT22;14047;50.936;4.654;2022-11-04T09:38:29;14.80;99.90
26336;DHT22;14047;50.936;4.654;2022-11-04T09:40:55;15.00;99.90
26336;DHT22;14047;50.936;4.654;2022-11-04T09:46:30;15.40;99.90
26336;DHT22;14047;50.936;4.654;2022-11-04T09:48:57;15.40;99.90
26336;DHT22;14047;50.936;4.654;2022-11-04T09:51:26;15.80;99.90
26336;DHT22;14047;50.936;4.654;2022-11-04T09:53:56;16.10;99.90
26336;DHT22;14047;50.936;4.654;2022-11-04T09:56:32;16.30;99.90
26336;DHT22;14047;50.936;4.654;2022-11-04T09:59:02;16.60;99.90
26336;DHT22;14047;50.936;4.654;2022-11-04T10:04:25;16.60;99.90
26336;DHT22;14047;50.936;4.654;2022-11-04T10:23:53;15.50;99.90
26336;DHT22;14047;50.936;4.654;2022-11-04T10:26:39;15.20;99.90
26336;DHT22;14047;50.936;4.654;2022-11-04T10:29:12;14.80;99.90
26336;DHT22;14047;50.936;4.654;2022-11-04T10:31:40;14.60;99.90
26336;DHT22;14047;50.936;4.654;2022-11-04T10:34:16;14.60;99.90
26336;DHT22;14047;50.936;4.654;2022-11-04T10:36:47;14.70;99.90
26336;DHT22;14047;50.936;4.654;2022-11-04T10:39:29;14.90;99.90
26336;DHT22;14047;50.936;4.654;2022-11-04T10:41:57;15.00;99.90
26336;DHT22;14047;50.936;4.654;2022-11-04T10:44:28;15.00;99.90
26336;DHT22;14047;50.936;4.654;2022-11-04T10:52:35;13.70;99.90
26336;DHT22;14047;50.936;4.654;2022-11-04T10:55:04;13.10;99.90
26336;DHT22;14047;50.936;4.654;2022-11-04T10:57:35;13.00;99.90
26336;DHT22;14047;50.936;4.654;2022-11-04T11:00:03;12.80;99.90
26336;DHT22;14047;50.936;4.654;2022-11-04T11:07:43;13.30;99.90
26336;DHT22;14047;50.936;4.654;2022-11-04T11:10:27;13.50;99.90
26336;DHT22;14047;50.936;4.654;2022-11-04T11:13:04;13.70;99.90
26336;DHT22;14047;50.936;4.654;2022-11-04T11:15:32;14.00;99.90
26336;DHT22;14047;50.936;4.654;2022-11-04T11:20:45;13.80;99.90
26336;DHT22;14047;50.936;4.654;2022-11-04T11:23:45;13.90;99.90
26336;DHT22;14047;50.936;4.654;2022-11-04T11:26:28;13.60;99.90
26336;DHT22;14047;50.936;4.654;2022-11-04T11:28:57;13.60;99.90
26336;DHT22;14047;50.936;4.654;2022-11-04T11:31:35;13.60;99.90
26336;DHT22;14047;50.936;4.654;2022-11-04T11:34:11;13.90;99.90
26336;DHT22;14047;50.936;4.654;2022-11-04T11:36:39;13.80;99.90
26336;DHT22;14047;50.936;4.654;2022-11-04T11:39:16;14.00;99.90
26336;DHT22;14047;50.936;4.654;2022-11-04T11:41:53;14.20;99.90
26336;DHT22;14047;50.936;4.654;2022-11-04T11:47:02;14.60;99.90
26336;DHT22;14047;50.936;4.654;2022-11-04T11:49:31;14.40;99.90
26336;DHT22;14047;50.936;4.654;2022-11-04T11:52:30;13.80;99.90
26336;DHT22;14047;50.936;4.654;2022-11-04T11:55:27;13.70;99.90
26336;DHT22;14047;50.936;4.654;2022-11-04T12:03:47;13.40;99.90
26336;DHT22;14047;50.936;4.654;2022-11-04T12:09:16;13.20;99.90
26336;DHT22;14047;50.936;4.654;2022-11-04T12:12:17;13.10;99.90
26336;DHT22;14047;50.936;4.654;2022-11-04T12:26:06;13.50;99.90
26336;DHT22;14047;50.936;4.654;2022-11-04T12:28:58;13.70;99.90
26336;DHT22;14047;50.936;4.654;2022-11-04T12:35:25;14.00;99.90
26336;DHT22;14047;50.936;4.654;2022-11-04T12:37:48;14.10;99.90
26336;DHT22;14047;50.936;4.654;2022-11-04T12:40:25;14.40;99.90
26336;DHT22;14047;50.936;4.654;2022-11-04T12:56:37;15.30;99.90
26336;DHT22;14047;50.936;4.654;2022-11-04T13:02:12;14.90;99.90
26336;DHT22;14047;50.936;4.654;2022-11-04T13:04:44;14.40;99.90
26336;DHT22;14047;50.936;4.654;2022-11-04T13:07:49;14.10;99.90
26336;DHT22;14047;50.936;4.654;2022-11-04T13:10:27;13.60;99.90
26336;DHT22;14047;50.936;4.654;2022-11-04T13:12:55;13.70;99.90
26336;DHT22;14047;50.936;4.654;2022-11-04T13:15:27;13.50;99.90
26336;DHT22;14047;50.936;4.654;2022-11-04T13:17:57;13.60;99.90
26336;DHT22;14047;50.936;4.654;2022-11-04T13:20:33;13.60;99.90
26336;DHT22;14047;50.936;4.654;2022-11-04T13:23:03;13.80;99.90
26336;DHT22;14047;50.936;4.654;2022-11-04T13:25:38;14.00;99.90
26336;DHT22;14047;50.936;4.654;2022-11-04T13:28:11;14.20;99.90
26336;DHT22;14047;50.936;4.654;2022-11-04T13:33:57;14.40;99.90
26336;DHT22;14047;50.936;4.654;2022-11-04T13:37:00;14.50;99.90
26336;DHT22;14047;50.936;4.654;2022-11-04T13:39:33;14.50;99.90
26336;DHT22;14047;50.936;4.654;2022-11-04T13:44:55;14.30;99.90
26336;DHT22;14047;50.936;4.654;2022-11-04T13:47:30;14.30;99.90
26336;DHT22;14047;50.936;4.654;2022-11-04T13:49:59;14.50;99.90
26336;DHT22;14047;50.936;4.654;2022-11-04T13:52:31;14.50;99.90
26336;DHT22;14047;50.936;4.654;2022-11-04T13:55:02;14.60;99.90
26336;DHT22;14047;50.936;4.654;2022-11-04T13:57:53;14.70;99.90
26336;DHT22;14047;50.936;4.654;2022-11-04T14:00:31;14.90;99.90
26336;DHT22;14047;50.936;4.654;2022-11-04T14:02:58;15.00;99.90
26336;DHT22;14047;50.936;4.654;2022-11-04T14:16:03;15.30;99.90
26336;DHT22;14047;50.936;4.654;2022-11-04T14:18:32;15.10;99.90
26336;DHT22;14047;50.936;4.654;2022-11-04T14:23:30;14.30;99.90
26336;DHT22;14047;50.936;4.654;2022-11-04T14:26:02;13.90;99.90
26336;DHT22;14047;50.936;4.654;2022-11-04T14:28:30;13.60;99.90
26336;DHT22;14047;50.936;4.654;2022-11-04T14:30:57;13.50;99.90
26336;DHT22;14047;50.936;4.654;2022-11-04T14:33:32;13.30;99.90
26336;DHT22;14047;50.936;4.654;2022-11-04T14:36:25;13.20;99.90
26336;DHT22;14047;50.936;4.654;2022-11-04T14:39:22;13.10;99.90
26336;DHT22;14047;50.936;4.654;2022-11-04T14:46:47;13.00;99.90
26336;DHT22;14047;50.936;4.654;2022-11-04T14:49:47;12.90;99.90
26336;DHT22;14047;50.936;4.654;2022-11-04T14:52:36;13.00;99.90
26336;DHT22;14047;50.936;4.654;2022-11-04T14:55:12;12.90;99.90
26336;DHT22;14047;50.936;4.654;2022-11-04T14:57:44;12.90;99.90
26336;DHT22;14047;50.936;4.654;2022-11-04T15:00:26;12.90;99.90
26336;DHT22;14047;50.936;4.654;2022-11-04T15:03:12;13.00;99.90
26336;DHT22;14047;50.936;4.654;2022-11-04T15:05:45;13.10;99.90
26336;DHT22;14047;50.936;4.654;2022-11-04T15:10:59;13.00;99.90
26336;DHT22;14047;50.936;4.654;2022-11-04T15:13:25;13.00;99.90
26336;DHT22;14047;50.936;4.654;2022-11-04T15:15:52;12.90;99.90
26336;DHT22;14047;50.936;4.654;2022-11-04T15:18:21;13.00;99.90
26336;DHT22;14047;50.936;4.654;2022-11-04T15:20:54;13.00;99.90
26336;DHT22;14047;50.936;4.654;2022-11-04T15:23:39;13.00;99.90
26336;DHT22;14047;50.936;4.654;2022-11-04T15:26:06;12.90;99.90
26336;DHT22;14047;50.936;4.654;2022-11-04T15:28:43;12.80;99.90
26336;DHT22;14047;50.936;4.654;2022-11-04T15:33:41;12.50;99.90
26336;DHT22;14047;50.936;4.654;2022-11-04T15:36:13;12.40;99.90
26336;DHT22;14047;50.936;4.654;2022-11-04T15:38:44;12.10;99.90
26336;DHT22;14047;50.936;4.654;2022-11-04T15:41:12;12.00;99.90
26336;DHT22;14047;50.936;4.654;2022-11-04T15:43:56;11.80;99.90
26336;DHT22;14047;50.936;4.654;2022-11-04T15:46:25;11.70;99.90
26336;DHT22;14047;50.936;4.654;2022-11-04T15:49:03;11.60;99.90
26336;DHT22;14047;50.936;4.654;2022-11-04T15:51:34;11.60;99.90
26336;DHT22;14047;50.936;4.654;2022-11-04T15:54:03;11.60;99.90
26336;DHT22;14047;50.936;4.654;2022-11-04T15:56:42;11.70;99.90
26336;DHT22;14047;50.936;4.654;2022-11-04T15:59:13;11.80;99.90
26336;DHT22;14047;50.936;4.654;2022-11-04T16:01:47;11.80;99.90
26336;DHT22;14047;50.936;4.654;2022-11-04T16:04:15;11.90;99.90
26336;DHT22;14047;50.936;4.654;2022-11-04T16:06:43;11.90;99.90
26336;DHT22;14047;50.936;4.654;2022-11-04T16:11:36;12.00;99.90
26336;DHT22;14047;50.936;4.654;2022-11-04T16:14:22;12.20;99.90
26336;DHT22;14047;50.936;4.654;2022-11-04T16:16:49;12.30;99.90
26336;DHT22;14047;50.936;4.654;2022-11-04T16:19:20;12.30;99.90
26336;DHT22;14047;50.936;4.654;2022-11-04T16:21:47;12.40;99.90
26336;DHT22;14047;50.936;4.654;2022-11-04T16:26:46;12.40;99.90
26336;DHT22;14047;50.936;4.654;2022-11-04T16:29:25;12.30;99.90
26336;DHT22;14047;50.936;4.654;2022-11-04T16:32:23;12.30;99.90
26336;DHT22;14047;50.936;4.654;2022-11-04T16:34:52;12.20;99.90
26336;DHT22;14047;50.936;4.654;2022-11-04T16:37:18;12.20;99.90
26336;DHT22;14047;50.936;4.654;2022-11-04T16:39:44;12.20;99.90
26336;DHT22;14047;50.936;4.654;2022-11-04T16:42:14;12.20;99.90
26336;DHT22;14047;50.936;4.654;2022-11-04T16:44:52;12.20;99.90
26336;DHT22;14047;50.936;4.654;2022-11-04T16:47:20;12.10;99.90
26336;DHT22;14047;50.936;4.654;2022-11-04T16:49:46;12.20;99.90
26336;DHT22;14047;50.936;4.654;2022-11-04T16:52:19;12.20;99.90
26336;DHT22;14047;50.936;4.654;2022-11-04T16:54:47;12.20;99.90
26336;DHT22;14047;50.936;4.654;2022-11-04T16:57:13;12.10;99.90
26336;DHT22;14047;50.936;4.654;2022-11-04T16:59:39;12.00;99.90
26336;DHT22;14047;50.936;4.654;2022-11-04T17:02:33;12.10;99.90
26336;DHT22;14047;50.936;4.654;2022-11-04T17:05:02;12.00;99.90
26336;DHT22;14047;50.936;4.654;2022-11-04T17:07:29;12.10;99.90
26336;DHT22;14047;50.936;4.654;2022-11-04T17:09:54;12.10;99.90
26336;DHT22;14047;50.936;4.654;2022-11-04T17:12:20;12.00;99.90
26336;DHT22;14047;50.936;4.654;2022-11-04T17:14:46;11.90;99.90
26336;DHT22;14047;50.936;4.654;2022-11-04T17:17:11;11.90;99.90
26336;DHT22;14047;50.936;4.654;2022-11-04T17:19:37;12.00;99.90
26336;DHT22;14047;50.936;4.654;2022-11-04T17:22:05;11.90;99.90
26336;DHT22;14047;50.936;4.654;2022-11-04T17:24:33;11.90;99.90
26336;DHT22;14047;50.936;4.654;2022-11-04T17:26:59;11.90;99.90
26336;DHT22;14047;50.936;4.654;2022-11-04T17:29:25;11.80;99.90
26336;DHT22;14047;50.936;4.654;2022-11-04T17:31:51;11.70;99.90
26336;DHT22;14047;50.936;4.654;2022-11-04T17:34:18;11.70;99.90
26336;DHT22;14047;50.936;4.654;2022-11-04T17:36:43;11.60;99.90
26336;DHT22;14047;50.936;4.654;2022-11-04T17:39:09;11.60;99.90
26336;DHT22;14047;50.936;4.654;2022-11-04T17:41:34;11.60;99.90
26336;DHT22;14047;50.936;4.654;2022-11-04T17:44:18;11.50;99.90
26336;DHT22;14047;50.936;4.654;2022-11-04T17:46:44;11.40;99.90
26336;DHT22;14047;50.936;4.654;2022-11-04T17:49:14;11.40;99.90
26336;DHT22;14047;50.936;4.654;2022-11-04T17:51:42;11.30;99.90
26336;DHT22;14047;50.936;4.654;2022-11-04T17:54:08;11.30;99.90
26336;DHT22;14047;50.936;4.654;2022-11-04T17:56:35;11.20;99.90
26336;DHT22;14047;50.936;4.654;2022-11-04T17:59:02;11.20;99.90
26336;DHT22;14047;50.936;4.654;2022-11-04T18:01:29;11.00;99.90
26336;DHT22;14047;50.936;4.654;2022-11-04T18:03:56;10.90;99.90
26336;DHT22;14047;50.936;4.654;2022-11-04T18:06:23;10.90;99.90
26336;DHT22;14047;50.936;4.654;2022-11-04T18:08:54;10.70;99.90
26336;DHT22;14047;50.936;4.654;2022-11-04T18:11:21;10.60;99.90
26336;DHT22;14047;50.936;4.654;2022-11-04T18:14:06;10.60;99.90
26336;DHT22;14047;50.936;4.654;2022-11-04T18:16:31;10.60;99.90
26336;DHT22;14047;50.936;4.654;2022-11-04T18:18:58;10.50;99.90
26336;DHT22;14047;50.936;4.654;2022-11-04T18:21:25;10.60;99.90
26336;DHT22;14047;50.936;4.654;2022-11-04T18:23:50;10.50;99.90
26336;DHT22;14047;50.936;4.654;2022-11-04T18:26:16;10.50;99.90
26336;DHT22;14047;50.936;4.654;2022-11-04T18:28:43;10.30;99.90
26336;DHT22;14047;50.936;4.654;2022-11-04T18:31:10;10.30;99.90
26336;DHT22;14047;50.936;4.654;2022-11-04T18:33:36;10.30;99.90